sensor_id;sensor_type;location;lat;lon;timestamp;temperature;humidity
66596;SHT31;59017;49.252;18.838;2022-08-19T00:01:33;25.36;58.44
66596;SHT31;59017;49.252;18.838;2022-08-19T00:04:01;25.25;58.82
66596;SHT31;59017;49.252;18.838;2022-08-19T00:06:29;25.36;58.37
66596;SHT31;59017;49.252;18.838;2022-08-19T00:08:56;25.41;58.21
66596;SHT31;59017;49.252;18.838;2022-08-19T00:11:22;25.45;58.09
66596;SHT31;59017;49.252;18.838;2022-08-19T00:13:47;25.42;58.15
66596;SHT31;59017;49.252;18.838;2022-08-19T00:16:19;25.46;58.10
66596;SHT31;59017;49.252;18.838;2022-08-19T00:18:47;25.43;58.10
66596;SHT31;59017;49.252;18.838;2022-08-19T00:21:13;25.35;58.29
66596;SHT31;59017;49.252;18.838;2022-08-19T00:23:39;25.31;58.38
66596;SHT31;59017;49.252;18.838;2022-08-19T00:26:06;25.19;58.74
66596;SHT31;59017;49.252;18.838;2022-08-19T00:28:33;25.08;58.98
66596;SHT31;59017;49.252;18.838;2022-08-19T00:31:03;25.25;58.54
66596;SHT31;59017;49.252;18.838;2022-08-19T00:33:30;25.10;58.97
66596;SHT31;59017;49.252;18.838;2022-08-19T00:35:59;25.15;58.74
66596;SHT31;59017;49.252;18.838;2022-08-19T00:38:25;25.19;58.71
66596;SHT31;59017;49.252;18.838;2022-08-19T00:40:52;25.24;58.60
66596;SHT31;59017;49.252;18.838;2022-08-19T00:43:20;25.22;58.67
66596;SHT31;59017;49.252;18.838;2022-08-19T00:45:46;24.98;59.38
66596;SHT31;59017;49.252;18.838;2022-08-19T00:48:11;25.14;59.01
66596;SHT31;59017;49.252;18.838;2022-08-19T00:50:39;25.21;58.65
66596;SHT31;59017;49.252;18.838;2022-08-19T00:53:06;25.25;58.59
66596;SHT31;59017;49.252;18.838;2022-08-19T00:55:32;25.28;58.50
66596;SHT31;59017;49.252;18.838;2022-08-19T00:58:07;25.18;58.68
66596;SHT31;59017;49.252;18.838;2022-08-19T01:00:34;25.26;58.50
66596;SHT31;59017;49.252;18.838;2022-08-19T01:03:05;25.25;58.44
66596;SHT31;59017;49.252;18.838;2022-08-19T01:05:31;24.98;59.26
66596;SHT31;59017;49.252;18.838;2022-08-19T01:07:59;25.11;58.84
66596;SHT31;59017;49.252;18.838;2022-08-19T01:10:28;25.08;58.91
66596;SHT31;59017;49.252;18.838;2022-08-19T01:12:55;25.19;58.70
66596;SHT31;59017;49.252;18.838;2022-08-19T01:15:26;25.10;58.90
66596;SHT31;59017;49.252;18.838;2022-08-19T01:17:53;24.92;59.18
66596;SHT31;59017;49.252;18.838;2022-08-19T01:20:22;24.88;59.36
66596;SHT31;59017;49.252;18.838;2022-08-19T01:22:53;24.94;59.34
66596;SHT31;59017;49.252;18.838;2022-08-19T01:25:29;25.07;58.96
66596;SHT31;59017;49.252;18.838;2022-08-19T01:27:55;25.04;58.93
66596;SHT31;59017;49.252;18.838;2022-08-19T01:30:26;24.87;59.49
66596;SHT31;59017;49.252;18.838;2022-08-19T01:32:53;24.70;59.92
66596;SHT31;59017;49.252;18.838;2022-08-19T01:35:20;24.94;59.33
66596;SHT31;59017;49.252;18.838;2022-08-19T01:37:55;25.03;58.92
66596;SHT31;59017;49.252;18.838;2022-08-19T01:40:23;25.04;59.01
66596;SHT31;59017;49.252;18.838;2022-08-19T01:42:50;25.10;58.92
66596;SHT31;59017;49.252;18.838;2022-08-19T01:45:17;25.12;58.79
66596;SHT31;59017;49.252;18.838;2022-08-19T01:47:42;25.10;58.93
66596;SHT31;59017;49.252;18.838;2022-08-19T01:50:10;25.14;58.75
66596;SHT31;59017;49.252;18.838;2022-08-19T01:52:37;25.14;58.90
66596;SHT31;59017;49.252;18.838;2022-08-19T01:55:04;25.12;58.87
66596;SHT31;59017;49.252;18.838;2022-08-19T01:57:30;25.15;58.69
66596;SHT31;59017;49.252;18.838;2022-08-19T01:59:55;25.14;58.76
66596;SHT31;59017;49.252;18.838;2022-08-19T02:02:21;25.04;58.92
66596;SHT31;59017;49.252;18.838;2022-08-19T02:04:47;24.86;59.61
66596;SHT31;59017;49.252;18.838;2022-08-19T02:07:13;24.95;59.24
66596;SHT31;59017;49.252;18.838;2022-08-19T02:09:38;25.01;59.05
66596;SHT31;59017;49.252;18.838;2022-08-19T02:12:04;25.03;59.13
66596;SHT31;59017;49.252;18.838;2022-08-19T02:14:30;24.98;59.30
66596;SHT31;59017;49.252;18.838;2022-08-19T02:16:57;25.04;59.07
66596;SHT31;59017;49.252;18.838;2022-08-19T02:19:22;24.98;59.20
66596;SHT31;59017;49.252;18.838;2022-08-19T02:21:48;25.03;59.11
66596;SHT31;59017;49.252;18.838;2022-08-19T02:24:14;25.03;58.94
66596;SHT31;59017;49.252;18.838;2022-08-19T02:26:39;25.05;59.02
66596;SHT31;59017;49.252;18.838;2022-08-19T02:29:05;25.01;58.98
66596;SHT31;59017;49.252;18.838;2022-08-19T02:31:30;25.07;58.87
66596;SHT31;59017;49.252;18.838;2022-08-19T02:33:56;24.91;59.11
66596;SHT31;59017;49.252;18.838;2022-08-19T02:36:24;24.77;59.72
66596;SHT31;59017;49.252;18.838;2022-08-19T02:38:49;24.81;59.40
66596;SHT31;59017;49.252;18.838;2022-08-19T02:41:21;24.81;59.54
66596;SHT31;59017;49.252;18.838;2022-08-19T02:43:47;24.64;60.01
66596;SHT31;59017;49.252;18.838;2022-08-19T02:46:14;24.86;59.41
66596;SHT31;59017;49.252;18.838;2022-08-19T02:48:39;24.56;60.20
66596;SHT31;59017;49.252;18.838;2022-08-19T02:51:05;24.76;59.73
66596;SHT31;59017;49.252;18.838;2022-08-19T02:53:31;24.90;59.26
66596;SHT31;59017;49.252;18.838;2022-08-19T02:55:56;24.92;59.20
66596;SHT31;59017;49.252;18.838;2022-08-19T02:58:23;24.90;59.08
66596;SHT31;59017;49.252;18.838;2022-08-19T03:00:51;24.92;59.07
66596;SHT31;59017;49.252;18.838;2022-08-19T03:03:18;24.92;59.12
66596;SHT31;59017;49.252;18.838;2022-08-19T03:05:44;24.94;59.06
66596;SHT31;59017;49.252;18.838;2022-08-19T03:08:11;24.91;59.10
66596;SHT31;59017;49.252;18.838;2022-08-19T03:10:47;24.90;59.07
66596;SHT31;59017;49.252;18.838;2022-08-19T03:13:17;24.80;59.37
66596;SHT31;59017;49.252;18.838;2022-08-19T03:15:44;24.70;59.61
66596;SHT31;59017;49.252;18.838;2022-08-19T03:18:10;24.80;59.36
66596;SHT31;59017;49.252;18.838;2022-08-19T03:20:55;24.86;59.07
66596;SHT31;59017;49.252;18.838;2022-08-19T03:23:22;24.73;59.45
66596;SHT31;59017;49.252;18.838;2022-08-19T03:25:51;24.44;60.41
66596;SHT31;59017;49.252;18.838;2022-08-19T03:28:18;24.50;60.26
66596;SHT31;59017;49.252;18.838;2022-08-19T03:30:56;24.43;60.37
66596;SHT31;59017;49.252;18.838;2022-08-19T03:33:22;24.32;60.70
66596;SHT31;59017;49.252;18.838;2022-08-19T03:36:10;24.25;61.03
66596;SHT31;59017;49.252;18.838;2022-08-19T03:38:37;24.56;59.95
66596;SHT31;59017;49.252;18.838;2022-08-19T03:41:06;24.66;59.60
66596;SHT31;59017;49.252;18.838;2022-08-19T03:43:33;24.68;59.42
66596;SHT31;59017;49.252;18.838;2022-08-19T03:46:03;24.73;59.37
66596;SHT31;59017;49.252;18.838;2022-08-19T03:48:30;24.78;59.25
66596;SHT31;59017;49.252;18.838;2022-08-19T03:50:56;24.78;59.28
66596;SHT31;59017;49.252;18.838;2022-08-19T03:53:23;24.80;59.04
66596;SHT31;59017;49.252;18.838;2022-08-19T03:55:49;24.78;59.01
66596;SHT31;59017;49.252;18.838;2022-08-19T03:58:14;24.80;58.97
66596;SHT31;59017;49.252;18.838;2022-08-19T04:00:42;24.80;58.98
66596;SHT31;59017;49.252;18.838;2022-08-19T04:03:08;24.80;59.04
66596;SHT31;59017;49.252;18.838;2022-08-19T04:05:33;24.80;59.04
66596;SHT31;59017;49.252;18.838;2022-08-19T04:07:58;24.84;58.89
66596;SHT31;59017;49.252;18.838;2022-08-19T04:10:26;24.81;58.88
66596;SHT31;59017;49.252;18.838;2022-08-19T04:12:52;24.81;58.88
66596;SHT31;59017;49.252;18.838;2022-08-19T04:15:18;24.80;58.79
66596;SHT31;59017;49.252;18.838;2022-08-19T04:17:44;24.78;59.04
66596;SHT31;59017;49.252;18.838;2022-08-19T04:20:09;24.81;59.09
66596;SHT31;59017;49.252;18.838;2022-08-19T04:22:35;24.84;59.04
66596;SHT31;59017;49.252;18.838;2022-08-19T04:25:00;24.83;59.19
66596;SHT31;59017;49.252;18.838;2022-08-19T04:27:26;24.83;59.08
66596;SHT31;59017;49.252;18.838;2022-08-19T04:29:51;24.78;59.53
66596;SHT31;59017;49.252;18.838;2022-08-19T04:32:19;24.86;59.21
66596;SHT31;59017;49.252;18.838;2022-08-19T04:34:45;24.88;59.08
66596;SHT31;59017;49.252;18.838;2022-08-19T04:37:10;24.90;58.82
66596;SHT31;59017;49.252;18.838;2022-08-19T04:39:37;24.91;58.93
66596;SHT31;59017;49.252;18.838;2022-08-19T04:42:21;25.01;58.72
66596;SHT31;59017;49.252;18.838;2022-08-19T04:45:11;25.05;58.52
66596;SHT31;59017;49.252;18.838;2022-08-19T04:47:39;25.01;58.63
66596;SHT31;59017;49.252;18.838;2022-08-19T04:50:06;24.97;58.73
66596;SHT31;59017;49.252;18.838;2022-08-19T04:52:32;24.99;58.59
66596;SHT31;59017;49.252;18.838;2022-08-19T04:54:58;25.05;58.75
66596;SHT31;59017;49.252;18.838;2022-08-19T04:57:24;24.95;58.77
66596;SHT31;59017;49.252;18.838;2022-08-19T04:59:53;24.97;58.90
66596;SHT31;59017;49.252;18.838;2022-08-19T05:02:19;24.91;59.07
66596;SHT31;59017;49.252;18.838;2022-08-19T05:04:45;25.01;58.70
66596;SHT31;59017;49.252;18.838;2022-08-19T05:07:10;24.95;58.89
66596;SHT31;59017;49.252;18.838;2022-08-19T05:09:37;24.91;59.05
66596;SHT31;59017;49.252;18.838;2022-08-19T05:12:03;24.83;59.28
66596;SHT31;59017;49.252;18.838;2022-08-19T05:14:28;24.49;60.17
66596;SHT31;59017;49.252;18.838;2022-08-19T05:16:54;24.64;59.74
66596;SHT31;59017;49.252;18.838;2022-08-19T05:19:20;24.64;59.89
66596;SHT31;59017;49.252;18.838;2022-08-19T05:22:03;24.77;59.38
66596;SHT31;59017;49.252;18.838;2022-08-19T05:24:55;24.77;59.37
66596;SHT31;59017;49.252;18.838;2022-08-19T05:27:20;24.71;59.75
66596;SHT31;59017;49.252;18.838;2022-08-19T05:29:46;24.66;60.14
66596;SHT31;59017;49.252;18.838;2022-08-19T05:32:11;24.84;59.49
66596;SHT31;59017;49.252;18.838;2022-08-19T05:34:37;24.90;59.41
66596;SHT31;59017;49.252;18.838;2022-08-19T05:37:04;24.94;59.46
66596;SHT31;59017;49.252;18.838;2022-08-19T05:39:31;24.94;59.35
66596;SHT31;59017;49.252;18.838;2022-08-19T05:42:06;25.01;59.21
66596;SHT31;59017;49.252;18.838;2022-08-19T05:44:34;24.95;59.49
66596;SHT31;59017;49.252;18.838;2022-08-19T05:47:02;25.03;59.27
66596;SHT31;59017;49.252;18.838;2022-08-19T05:49:28;24.98;59.41
66596;SHT31;59017;49.252;18.838;2022-08-19T05:51:54;24.81;59.65
66596;SHT31;59017;49.252;18.838;2022-08-19T05:54:21;24.78;59.74
66596;SHT31;59017;49.252;18.838;2022-08-19T05:56:49;24.78;59.95
66596;SHT31;59017;49.252;18.838;2022-08-19T05:59:16;24.90;59.58
66596;SHT31;59017;49.252;18.838;2022-08-19T06:01:44;25.11;59.04
66596;SHT31;59017;49.252;18.838;2022-08-19T06:04:11;25.22;58.92
66596;SHT31;59017;49.252;18.838;2022-08-19T06:06:38;25.15;58.95
66596;SHT31;59017;49.252;18.838;2022-08-19T06:09:06;25.14;58.74
66596;SHT31;59017;49.252;18.838;2022-08-19T06:11:37;25.03;58.74
66596;SHT31;59017;49.252;18.838;2022-08-19T06:14:06;25.04;58.65
66596;SHT31;59017;49.252;18.838;2022-08-19T06:16:34;25.22;58.40
66596;SHT31;59017;49.252;18.838;2022-08-19T06:19:05;25.18;58.11
66596;SHT31;59017;49.252;18.838;2022-08-19T06:21:32;25.32;57.87
66596;SHT31;59017;49.252;18.838;2022-08-19T06:23:58;25.32;57.62
66596;SHT31;59017;49.252;18.838;2022-08-19T06:26:25;25.35;57.44
66596;SHT31;59017;49.252;18.838;2022-08-19T06:28:52;25.42;57.34
66596;SHT31;59017;49.252;18.838;2022-08-19T06:31:20;25.47;57.35
66596;SHT31;59017;49.252;18.838;2022-08-19T06:33:47;25.46;57.18
66596;SHT31;59017;49.252;18.838;2022-08-19T06:36:23;25.56;56.87
66596;SHT31;59017;49.252;18.838;2022-08-19T06:38:58;25.70;56.71
66596;SHT31;59017;49.252;18.838;2022-08-19T06:41:25;25.70;56.85
66596;SHT31;59017;49.252;18.838;2022-08-19T06:43:51;25.73;56.61
66596;SHT31;59017;49.252;18.838;2022-08-19T06:46:18;25.82;56.53
66596;SHT31;59017;49.252;18.838;2022-08-19T06:48:45;25.91;56.37
66596;SHT31;59017;49.252;18.838;2022-08-19T06:51:11;26.02;56.27
66596;SHT31;59017;49.252;18.838;2022-08-19T06:53:37;26.10;56.11
66596;SHT31;59017;49.252;18.838;2022-08-19T06:56:04;26.11;56.14
66596;SHT31;59017;49.252;18.838;2022-08-19T06:58:30;26.13;56.13
66596;SHT31;59017;49.252;18.838;2022-08-19T07:01:02;26.14;55.96
66596;SHT31;59017;49.252;18.838;2022-08-19T07:03:34;26.18;55.91
66596;SHT31;59017;49.252;18.838;2022-08-19T07:06:08;26.21;55.97
66596;SHT31;59017;49.252;18.838;2022-08-19T07:08:35;26.27;55.93
66596;SHT31;59017;49.252;18.838;2022-08-19T07:11:06;26.34;55.95
66596;SHT31;59017;49.252;18.838;2022-08-19T07:13:32;26.35;56.00
66596;SHT31;59017;49.252;18.838;2022-08-19T07:16:04;26.32;56.21
66596;SHT31;59017;49.252;18.838;2022-08-19T07:18:30;26.27;56.24
66596;SHT31;59017;49.252;18.838;2022-08-19T07:21:04;26.32;56.09
66596;SHT31;59017;49.252;18.838;2022-08-19T07:23:30;26.31;56.17
66596;SHT31;59017;49.252;18.838;2022-08-19T07:25:56;26.39;56.06
66596;SHT31;59017;49.252;18.838;2022-08-19T07:28:22;26.39;56.05
66596;SHT31;59017;49.252;18.838;2022-08-19T07:30:48;26.45;55.93
66596;SHT31;59017;49.252;18.838;2022-08-19T07:33:14;26.47;55.96
66596;SHT31;59017;49.252;18.838;2022-08-19T07:35:40;26.55;55.87
66596;SHT31;59017;49.252;18.838;2022-08-19T07:38:06;26.55;56.01
66596;SHT31;59017;49.252;18.838;2022-08-19T07:40:31;26.62;55.88
66596;SHT31;59017;49.252;18.838;2022-08-19T07:42:57;26.59;55.93
66596;SHT31;59017;49.252;18.838;2022-08-19T07:45:22;26.60;55.86
66596;SHT31;59017;49.252;18.838;2022-08-19T07:47:48;26.60;55.47
66596;SHT31;59017;49.252;18.838;2022-08-19T07:50:14;26.71;55.55
66596;SHT31;59017;49.252;18.838;2022-08-19T07:52:40;26.76;55.25
66596;SHT31;59017;49.252;18.838;2022-08-19T07:55:07;26.82;55.00
66596;SHT31;59017;49.252;18.838;2022-08-19T07:57:33;26.80;55.07
66596;SHT31;59017;49.252;18.838;2022-08-19T07:59:58;26.82;55.12
66596;SHT31;59017;49.252;18.838;2022-08-19T08:02:24;26.85;55.07
66596;SHT31;59017;49.252;18.838;2022-08-19T08:04:49;26.89;55.03
66596;SHT31;59017;49.252;18.838;2022-08-19T08:07:33;26.93;54.91
66596;SHT31;59017;49.252;18.838;2022-08-19T08:10:17;26.90;55.08
66596;SHT31;59017;49.252;18.838;2022-08-19T08:12:43;27.04;54.80
66596;SHT31;59017;49.252;18.838;2022-08-19T08:15:12;27.04;54.63
66596;SHT31;59017;49.252;18.838;2022-08-19T08:17:42;27.10;54.67
66596;SHT31;59017;49.252;18.838;2022-08-19T08:20:08;27.13;54.63
66596;SHT31;59017;49.252;18.838;2022-08-19T08:22:34;27.17;54.46
66596;SHT31;59017;49.252;18.838;2022-08-19T08:25:21;27.23;54.30
66596;SHT31;59017;49.252;18.838;2022-08-19T08:27:48;27.22;54.29
66596;SHT31;59017;49.252;18.838;2022-08-19T08:30:25;27.22;54.27
66596;SHT31;59017;49.252;18.838;2022-08-19T08:32:51;27.22;54.09
66596;SHT31;59017;49.252;18.838;2022-08-19T08:35:19;27.24;54.01
66596;SHT31;59017;49.252;18.838;2022-08-19T08:37:47;27.33;53.71
66596;SHT31;59017;49.252;18.838;2022-08-19T08:42:57;27.29;53.76
66596;SHT31;59017;49.252;18.838;2022-08-19T08:45:26;27.31;53.85
66596;SHT31;59017;49.252;18.838;2022-08-19T08:47:55;27.37;53.50
66596;SHT31;59017;49.252;18.838;2022-08-19T08:50:29;27.40;53.55
66596;SHT31;59017;49.252;18.838;2022-08-19T08:52:56;27.40;53.54
66596;SHT31;59017;49.252;18.838;2022-08-19T08:55:27;27.40;53.31
66596;SHT31;59017;49.252;18.838;2022-08-19T09:00:47;27.43;53.18
66596;SHT31;59017;49.252;18.838;2022-08-19T09:03:26;27.45;52.92
66596;SHT31;59017;49.252;18.838;2022-08-19T09:11:08;27.51;52.32
66596;SHT31;59017;49.252;18.838;2022-08-19T09:16:05;27.62;51.87
66596;SHT31;59017;49.252;18.838;2022-08-19T09:18:52;27.59;52.17
66596;SHT31;59017;49.252;18.838;2022-08-19T09:21:20;27.61;51.85
66596;SHT31;59017;49.252;18.838;2022-08-19T09:23:47;27.68;51.88
66596;SHT31;59017;49.252;18.838;2022-08-19T09:26:16;27.66;51.66
66596;SHT31;59017;49.252;18.838;2022-08-19T09:28:43;27.84;51.25
66596;SHT31;59017;49.252;18.838;2022-08-19T09:31:10;27.82;51.39
66596;SHT31;59017;49.252;18.838;2022-08-19T09:33:37;27.84;51.23
66596;SHT31;59017;49.252;18.838;2022-08-19T09:36:07;27.92;51.18
66596;SHT31;59017;49.252;18.838;2022-08-19T09:38:34;27.92;51.33
66596;SHT31;59017;49.252;18.838;2022-08-19T09:41:17;27.96;51.63
66596;SHT31;59017;49.252;18.838;2022-08-19T09:43:46;27.93;51.65
66596;SHT31;59017;49.252;18.838;2022-08-19T09:46:12;28.05;50.93
66596;SHT31;59017;49.252;18.838;2022-08-19T09:48:39;28.00;51.12
66596;SHT31;59017;49.252;18.838;2022-08-19T09:51:13;28.05;50.65
66596;SHT31;59017;49.252;18.838;2022-08-19T09:53:44;28.08;50.26
66596;SHT31;59017;49.252;18.838;2022-08-19T09:56:11;28.00;50.72
66596;SHT31;59017;49.252;18.838;2022-08-19T09:58:38;28.00;50.82
66596;SHT31;59017;49.252;18.838;2022-08-19T10:01:05;28.02;50.79
66596;SHT31;59017;49.252;18.838;2022-08-19T10:03:33;28.08;50.48
66596;SHT31;59017;49.252;18.838;2022-08-19T10:06:01;28.06;50.64
66596;SHT31;59017;49.252;18.838;2022-08-19T10:08:33;28.10;50.59
66596;SHT31;59017;49.252;18.838;2022-08-19T10:11:00;28.06;50.79
66596;SHT31;59017;49.252;18.838;2022-08-19T10:13:28;28.06;50.85
66596;SHT31;59017;49.252;18.838;2022-08-19T10:15:56;28.10;50.67
66596;SHT31;59017;49.252;18.838;2022-08-19T10:18:23;28.10;50.52
66596;SHT31;59017;49.252;18.838;2022-08-19T10:20:50;28.10;50.48
66596;SHT31;59017;49.252;18.838;2022-08-19T10:23:16;28.14;50.63
66596;SHT31;59017;49.252;18.838;2022-08-19T10:25:42;28.14;50.00
66596;SHT31;59017;49.252;18.838;2022-08-19T10:28:09;28.19;49.60
66596;SHT31;59017;49.252;18.838;2022-08-19T10:30:38;28.23;49.43
66596;SHT31;59017;49.252;18.838;2022-08-19T10:33:04;28.23;49.49
66596;SHT31;59017;49.252;18.838;2022-08-19T10:35:30;28.20;49.68
66596;SHT31;59017;49.252;18.838;2022-08-19T10:37:58;28.19;49.40
66596;SHT31;59017;49.252;18.838;2022-08-19T10:40:26;28.24;49.57
66596;SHT31;59017;49.252;18.838;2022-08-19T10:42:53;28.32;48.59
66596;SHT31;59017;49.252;18.838;2022-08-19T10:45:19;28.27;49.06
66596;SHT31;59017;49.252;18.838;2022-08-19T10:47:47;28.27;49.04
66596;SHT31;59017;49.252;18.838;2022-08-19T10:50:13;28.26;48.55
66596;SHT31;59017;49.252;18.838;2022-08-19T10:52:57;28.35;48.51
66596;SHT31;59017;49.252;18.838;2022-08-19T10:55:23;28.33;48.19
66596;SHT31;59017;49.252;18.838;2022-08-19T10:58:13;28.27;48.57
66596;SHT31;59017;49.252;18.838;2022-08-19T11:00:39;28.24;48.90
66596;SHT31;59017;49.252;18.838;2022-08-19T11:03:05;28.27;48.33
66596;SHT31;59017;49.252;18.838;2022-08-19T11:05:31;28.30;48.69
66596;SHT31;59017;49.252;18.838;2022-08-19T11:07:56;28.27;48.60
66596;SHT31;59017;49.252;18.838;2022-08-19T11:10:22;28.27;48.76
66596;SHT31;59017;49.252;18.838;2022-08-19T11:12:49;28.33;48.09
66596;SHT31;59017;49.252;18.838;2022-08-19T11:15:19;28.29;48.65
66596;SHT31;59017;49.252;18.838;2022-08-19T11:17:45;28.24;48.58
66596;SHT31;59017;49.252;18.838;2022-08-19T11:20:12;28.24;48.62
66596;SHT31;59017;49.252;18.838;2022-08-19T11:22:39;28.26;48.78
66596;SHT31;59017;49.252;18.838;2022-08-19T11:25:06;28.33;48.68
66596;SHT31;59017;49.252;18.838;2022-08-19T11:27:32;28.35;49.01
66596;SHT31;59017;49.252;18.838;2022-08-19T11:29:59;28.50;48.43
66596;SHT31;59017;49.252;18.838;2022-08-19T11:32:25;28.60;47.98
66596;SHT31;59017;49.252;18.838;2022-08-19T11:34:51;28.60;48.09
66596;SHT31;59017;49.252;18.838;2022-08-19T11:37:17;28.64;48.01
66596;SHT31;59017;49.252;18.838;2022-08-19T11:39:42;28.63;48.01
66596;SHT31;59017;49.252;18.838;2022-08-19T11:42:08;28.71;47.71
66596;SHT31;59017;49.252;18.838;2022-08-19T11:45:03;28.71;47.91
66596;SHT31;59017;49.252;18.838;2022-08-19T11:47:29;28.78;47.09
66596;SHT31;59017;49.252;18.838;2022-08-19T11:49:55;28.87;47.04
66596;SHT31;59017;49.252;18.838;2022-08-19T11:52:21;28.91;46.87
66596;SHT31;59017;49.252;18.838;2022-08-19T11:54:47;28.90;46.95
66596;SHT31;59017;49.252;18.838;2022-08-19T11:57:12;29.05;46.16
66596;SHT31;59017;49.252;18.838;2022-08-19T11:59:42;29.08;46.31
66596;SHT31;59017;49.252;18.838;2022-08-19T12:02:07;29.02;46.40
66596;SHT31;59017;49.252;18.838;2022-08-19T12:04:33;28.99;46.78
66596;SHT31;59017;49.252;18.838;2022-08-19T12:06:59;29.09;46.02
66596;SHT31;59017;49.252;18.838;2022-08-19T12:09:25;29.06;46.24
66596;SHT31;59017;49.252;18.838;2022-08-19T12:11:50;29.20;45.78
66596;SHT31;59017;49.252;18.838;2022-08-19T12:14:16;29.11;46.44
66596;SHT31;59017;49.252;18.838;2022-08-19T12:16:44;28.99;46.63
66596;SHT31;59017;49.252;18.838;2022-08-19T12:19:10;28.95;46.69
66596;SHT31;59017;49.252;18.838;2022-08-19T12:21:36;28.88;46.84
66596;SHT31;59017;49.252;18.838;2022-08-19T12:24:04;28.85;46.89
66596;SHT31;59017;49.252;18.838;2022-08-19T12:26:30;28.84;46.95
66596;SHT31;59017;49.252;18.838;2022-08-19T12:28:56;28.74;47.24
66596;SHT31;59017;49.252;18.838;2022-08-19T12:31:25;28.85;46.83
66596;SHT31;59017;49.252;18.838;2022-08-19T12:33:50;29.01;46.56
66596;SHT31;59017;49.252;18.838;2022-08-19T12:36:20;29.01;46.48
66596;SHT31;59017;49.252;18.838;2022-08-19T12:38:47;29.01;46.65
66596;SHT31;59017;49.252;18.838;2022-08-19T12:41:19;28.96;47.03
66596;SHT31;59017;49.252;18.838;2022-08-19T12:43:53;28.87;47.43
66596;SHT31;59017;49.252;18.838;2022-08-19T12:46:30;28.84;47.08
66596;SHT31;59017;49.252;18.838;2022-08-19T12:48:59;28.90;46.99
66596;SHT31;59017;49.252;18.838;2022-08-19T12:51:25;28.91;46.20
66596;SHT31;59017;49.252;18.838;2022-08-19T12:53:56;28.92;45.98
66596;SHT31;59017;49.252;18.838;2022-08-19T12:56:36;28.88;45.98
66596;SHT31;59017;49.252;18.838;2022-08-19T12:59:06;28.96;45.53
66596;SHT31;59017;49.252;18.838;2022-08-19T13:01:33;28.98;45.16
66596;SHT31;59017;49.252;18.838;2022-08-19T13:03:59;28.91;45.80
66596;SHT31;59017;49.252;18.838;2022-08-19T13:06:36;28.88;45.94
66596;SHT31;59017;49.252;18.838;2022-08-19T13:09:14;28.87;45.56
66596;SHT31;59017;49.252;18.838;2022-08-19T13:11:39;28.92;45.42
66596;SHT31;59017;49.252;18.838;2022-08-19T13:14:05;29.01;44.91
66596;SHT31;59017;49.252;18.838;2022-08-19T13:16:31;29.05;44.78
66596;SHT31;59017;49.252;18.838;2022-08-19T13:18:57;28.98;44.94
66596;SHT31;59017;49.252;18.838;2022-08-19T13:21:27;29.13;44.32
66596;SHT31;59017;49.252;18.838;2022-08-19T13:23:54;29.12;44.27
66596;SHT31;59017;49.252;18.838;2022-08-19T13:26:19;29.05;44.91
66596;SHT31;59017;49.252;18.838;2022-08-19T13:28:45;28.99;45.06
66596;SHT31;59017;49.252;18.838;2022-08-19T13:31:32;29.01;44.76
66596;SHT31;59017;49.252;18.838;2022-08-19T13:34:18;29.19;44.52
66596;SHT31;59017;49.252;18.838;2022-08-19T13:36:44;29.15;44.76
66596;SHT31;59017;49.252;18.838;2022-08-19T13:39:10;29.16;45.09
66596;SHT31;59017;49.252;18.838;2022-08-19T13:41:37;29.19;45.24
66596;SHT31;59017;49.252;18.838;2022-08-19T13:44:03;29.33;45.12
66596;SHT31;59017;49.252;18.838;2022-08-19T13:46:29;29.34;44.49
66596;SHT31;59017;49.252;18.838;2022-08-19T13:48:56;29.40;44.64
66596;SHT31;59017;49.252;18.838;2022-08-19T13:51:22;29.37;44.34
66596;SHT31;59017;49.252;18.838;2022-08-19T13:53:48;29.49;44.09
66596;SHT31;59017;49.252;18.838;2022-08-19T13:56:16;29.49;44.12
66596;SHT31;59017;49.252;18.838;2022-08-19T13:58:42;29.43;44.55
66596;SHT31;59017;49.252;18.838;2022-08-19T14:01:09;29.37;44.65
66596;SHT31;59017;49.252;18.838;2022-08-19T14:03:35;29.46;44.22
66596;SHT31;59017;49.252;18.838;2022-08-19T14:06:01;29.30;44.92
66596;SHT31;59017;49.252;18.838;2022-08-19T14:08:27;29.32;44.94
66596;SHT31;59017;49.252;18.838;2022-08-19T14:10:54;29.27;45.34
66596;SHT31;59017;49.252;18.838;2022-08-19T14:13:23;29.27;45.02
66596;SHT31;59017;49.252;18.838;2022-08-19T14:15:49;29.29;44.67
66596;SHT31;59017;49.252;18.838;2022-08-19T14:18:16;29.29;45.05
66596;SHT31;59017;49.252;18.838;2022-08-19T14:20:42;29.18;45.33
66596;SHT31;59017;49.252;18.838;2022-08-19T14:23:08;29.26;44.89
66596;SHT31;59017;49.252;18.838;2022-08-19T14:25:34;29.23;45.16
66596;SHT31;59017;49.252;18.838;2022-08-19T14:28:00;29.16;45.07
66596;SHT31;59017;49.252;18.838;2022-08-19T14:30:29;29.15;45.46
66596;SHT31;59017;49.252;18.838;2022-08-19T14:33:00;29.05;45.41
66596;SHT31;59017;49.252;18.838;2022-08-19T14:35:28;29.26;44.12
66596;SHT31;59017;49.252;18.838;2022-08-19T14:37:54;29.46;42.50
66596;SHT31;59017;49.252;18.838;2022-08-19T14:40:23;29.69;41.88
66596;SHT31;59017;49.252;18.838;2022-08-19T14:42:58;29.63;42.52
66596;SHT31;59017;49.252;18.838;2022-08-19T14:45:31;29.39;43.67
66596;SHT31;59017;49.252;18.838;2022-08-19T14:47:56;29.19;44.28
66596;SHT31;59017;49.252;18.838;2022-08-19T14:50:24;29.42;43.94
66596;SHT31;59017;49.252;18.838;2022-08-19T14:53:01;29.34;44.01
66596;SHT31;59017;49.252;18.838;2022-08-19T14:55:29;29.45;42.41
66596;SHT31;59017;49.252;18.838;2022-08-19T14:57:55;29.42;43.72
66596;SHT31;59017;49.252;18.838;2022-08-19T15:00:21;29.15;44.66
66596;SHT31;59017;49.252;18.838;2022-08-19T15:02:46;29.36;42.56
66596;SHT31;59017;49.252;18.838;2022-08-19T15:05:12;29.43;42.55
66596;SHT31;59017;49.252;18.838;2022-08-19T15:07:38;29.49;42.05
66596;SHT31;59017;49.252;18.838;2022-08-19T15:10:05;29.39;43.53
66596;SHT31;59017;49.252;18.838;2022-08-19T15:12:33;29.29;44.09
66596;SHT31;59017;49.252;18.838;2022-08-19T15:14:59;29.37;42.69
66596;SHT31;59017;49.252;18.838;2022-08-19T15:17:25;29.45;43.27
66596;SHT31;59017;49.252;18.838;2022-08-19T15:19:50;29.18;44.17
66596;SHT31;59017;49.252;18.838;2022-08-19T15:22:16;29.06;44.60
66596;SHT31;59017;49.252;18.838;2022-08-19T15:24:41;28.99;44.65
66596;SHT31;59017;49.252;18.838;2022-08-19T15:27:10;28.91;45.00
66596;SHT31;59017;49.252;18.838;2022-08-19T15:29:36;28.98;44.97
66596;SHT31;59017;49.252;18.838;2022-08-19T15:32:02;28.92;45.11
66596;SHT31;59017;49.252;18.838;2022-08-19T15:34:28;29.02;44.88